Station info - map view · info · telemetry · weather · raw · status · beacons · messages · bulletins · browse · moving · my account
Callsign, ship name or locator: Clear       
It is possible to search using wildcards (*?) after a prefix. Example: OH*
APRS station UZ5DX-2 - show graphs
Map loading...
Comment: My new FT2D
Mic-E message: En route
Location: 48°10.35' N 22°36.35' E - locator KN18HE21QJ - show map - static map
2.9 miles Southwest bearing 218° from Berehove, Zakarpats'ka, Ukraine [?]
5.6 miles Northeast bearing 34° from Tarpa, Szabolcs-Szatmár-Bereg, Hungary
63.1 miles Northeast bearing 45° from Debrecen, Hajdú-Bihar, Hungary
72.2 miles Southeast bearing 121° from Košice, Košický, Slovakia
Last position: 2017-07-17 20:50:54 EDT (5d 2h9m ago)
2017-07-18 03:50:54 EEST local time at Berehove, Ukraine [?]
Altitude: 125 ft
Position ambiguous: Precision reduced at transmitter by 1 digits, position resolution approximately 202.5 yards.
Course: 21°
Speed: 39 MPH
Device: Yaesu: FT2D (ht)
Last path: UZ5DX-2>TX1P3L via WIDE1-1,WIDE2-1,qAR,UR0DVB-1 (good)
Positions stored: 2046
Packet rate: 174 seconds between packets on average during 8698 seconds.
Other SSIDs: UZ5DX-10 UZ5DX-7
Stations near current position of UZ5DX-2 - show more
callsign distance last heard - EDT      callsign distance last heard - EDT
UR0DUG20.0 miles 96°2017-07-22 22:56:48 UZ5DU-220.1 miles 93°2017-06-26 03:16:29
UR5DGN-120.2 miles 93°2017-07-22 19:01:33 SUSHIREST20.3 miles 93°2017-07-22 22:56:43
UR5DGN-1320.3 miles 93°2017-07-22 22:57:03 UZ5DX-720.3 miles 93°2017-07-22 10:06:33
UZ5DU-320.3 miles 93°2017-07-19 07:35:52 HOTEL20.3 miles 93°2017-07-22 22:56:38
UZ5DU20.3 miles 93°2017-07-22 22:56:58 UZ5DU-120.3 miles 93°2017-07-19 11:10:16
UR5DGN-1020.3 miles 93°2017-07-22 22:59:39 UR0DUF20.4 miles 95°2017-07-22 22:56:53
Stations which heard UZ5DX-2 directly on radio –
callsign pkts first heard - EDT last heard longest (tx => rx) longest at - EDT
OE1XQR 21 2017-07-12 10:00:13 2017-07-17 13:23:14 JN88HC > JN88EE 10.6 miles 287° 2017-07-12 10:00:13
OE5XOR 7 2017-07-12 12:44:18 2017-07-17 11:08:13 JN68XA > JN78DJ 30.2 miles 27° 2017-07-12 13:14:20
OE6XTR 49 2017-07-12 02:40:31 2017-07-17 18:51:59 KN07QV > JN77VN 261.8 miles 267° 2017-07-12 02:40:31
OE7XAR-11 1 2017-07-12 15:31:42 2017-07-12 15:31:42 JN57XT > JN67CN 21.1 miles 145° 2017-07-12 15:31:42
HG6PGA-1 19 2017-07-12 02:40:31 2017-07-17 18:51:58 KN07QV > JN97XV 69.2 miles 273° 2017-07-12 02:40:31
OE2XHR-11 1 2017-07-17 10:27:18 2017-07-17 10:27:18 JN67QU > JN67MK 32.8 miles 208° 2017-07-17 10:27:18
HG1PNY-1 25 2017-07-12 06:58:33 2017-07-17 16:38:04 JN97EN > JN87TN 35.1 miles 271° 2017-07-12 06:58:33
DB0FIG 7 2017-07-12 18:19:40 2017-07-17 05:43:57 JN47TR > JN47RQ 9.7 miles 247° 2017-07-12 18:19:40
OE3XKR 16 2017-07-12 10:03:42 2017-07-17 13:33:04 JN78TE > JN88EN 43.0 miles 51° 2017-07-12 12:06:06
OE5ERN-10 1 2017-07-12 12:58:14 2017-07-12 12:58:14 JN78DF > JN78DH 6.6 miles 350° 2017-07-12 12:58:14
OE1SSU-10 1 2017-07-12 08:26:03 2017-07-12 08:26:03 JN87KX > JN88DD 28.1 miles 290° 2017-07-12 08:26:03
OE3XXR 6 2017-07-12 12:44:50 2017-07-17 11:17:46 JN78EF > JN78GD 9.3 miles 125° 2017-07-17 11:12:33
DB0SIG 1 2017-07-12 18:12:55 2017-07-12 18:12:55 JN47UR > JN48OC 32.3 miles 320° 2017-07-12 18:12:55
DC7WOL-10 2 2017-07-12 17:24:02 2017-07-12 17:25:21 JN58FA > JN58GB 2.2 miles 38° 2017-07-12 17:25:21
HG3PMF-1 20 2017-07-12 04:01:19 2017-07-17 17:53:13 JN97RP > JN96CC 122.0 miles 210° 2017-07-17 17:53:13
HG1DFB-1 4 2017-07-12 06:43:30 2017-07-17 16:54:13 JN97HM > JN97JL 10.2 miles 108° 2017-07-12 06:49:16
OE5XIM-10 6 2017-07-12 12:39:17 2017-07-17 11:21:18 JN78JC > JN78DN 39.2 miles 321° 2017-07-12 12:39:17
HB9BB 6 2017-07-12 17:49:48 2017-07-12 18:07:26 JN47XU > JN47RD 55.1 miles 209° 2017-07-12 17:49:48
OE1XDS-10 6 2017-07-12 09:22:12 2017-07-17 15:21:58 JN87KX > JN88EF 28.3 miles 303° 2017-07-17 15:21:58
OE5REO-10 2 2017-07-12 12:49:24 2017-07-12 13:10:18 JN78GE > JN77BV 26.8 miles 226° 2017-07-12 12:49:24
DF6MD-10 1 2017-07-12 17:15:58 2017-07-12 17:15:58 JN58IA > JN57GW 10.4 miles 237° 2017-07-12 17:15:58
OE3XIA-10 7 2017-07-12 08:22:32 2017-07-17 15:27:14 JN87KX > JN88CF 33.2 miles 301° 2017-07-17 13:45:59
OE2XZR-10 14 2017-07-12 13:46:23 2017-07-12 14:09:35 JN67JT > JN67NT 13.7 miles 97° 2017-07-12 14:09:35
OE3MZC-2 3 2017-07-17 11:58:50 2017-07-17 12:04:09 JN78TE > JN78XE 12.5 miles 83° 2017-07-17 11:58:50
OE3XDA-10 5 2017-07-12 12:24:49 2017-07-17 11:48:18 JN78QF > JN78LA 22.3 miles 236° 2017-07-17 11:48:18
OE5XBL-10 4 2017-07-12 13:30:23 2017-07-12 15:16:04 JN67DT > JN68PC 51.4 miles 66° 2017-07-12 15:16:04
OE3REC-11 2 2017-07-17 13:33:04 2017-07-17 13:34:56 JN88IB > JN88HE 8.8 miles 332° 2017-07-17 13:34:56
OE1ACM-12 1 2017-07-17 13:21:48 2017-07-17 13:21:48 JN88FE > JN88FF 2.5 miles 2° 2017-07-17 13:21:48
HA5OB-11 15 2017-07-12 04:05:38 2017-07-12 05:39:53 JN97KK > JN97NL 13.1 miles 85° 2017-07-12 05:05:27
HG9PTA 20 2017-07-12 02:50:41 2017-07-17 20:04:04 KN07GS > KN08QC 47.2 miles 58° 2017-07-12 03:16:21
HB9KOM-1 7 2017-07-12 18:19:42 2017-07-17 05:46:27 JN47TR > JN47OJ 31.1 miles 223° 2017-07-12 18:19:42
HG7PDK-2 19 2017-07-12 03:45:52 2017-07-17 17:57:20 JN97TP > JN97FQ 51.8 miles 271° 2017-07-17 17:57:20
OE1TRB-15 3 2017-07-17 13:09:25 2017-07-17 13:13:26 JN88EH > JN88EF 4.7 miles 164° 2017-07-17 13:09:25
HG5PGE-2 13 2017-07-12 06:53:51 2017-07-17 16:43:37 JN87UP > JN97FQ 38.3 miles 85° 2017-07-17 16:11:57
OE3VBA-10 8 2017-07-12 12:16:26 2017-07-17 12:00:02 JN78OE > JN78RG 13.4 miles 68° 2017-07-17 11:41:36
ON6WFO-10 1 2017-07-14 02:45:55 2017-07-14 02:45:55 JN47SQ > JN47SQ 24.9 yards 34° 2017-07-14 02:45:55
OE5EEP-10 9 2017-07-12 13:25:40 2017-07-17 10:44:18 JN67QU > JN67TX 13.0 miles 50° 2017-07-12 13:39:06
DB0OAL 1 2017-07-12 16:54:36 2017-07-12 16:54:36 JN58KB > JN57JN 34.6 miles 185° 2017-07-12 16:54:36
OE3PDB-6 8 2017-07-12 11:38:58 2017-07-17 13:02:37 JN78WJ > JN88BG 14.9 miles 136° 2017-07-17 12:14:16
OE3BUB-10 11 2017-07-12 10:03:40 2017-07-17 13:08:42 JN88CJ > JN88FG 14.1 miles 118° 2017-07-17 12:26:03
OE3PDB-12 26 2017-07-12 11:34:06 2017-07-17 13:02:37 JN78TE > JN88BG 24.1 miles 77° 2017-07-12 12:09:10
OE3PDB-3 13 2017-07-12 10:13:02 2017-07-17 13:02:06 JN78UI > JN88BG 19.1 miles 114° 2017-07-17 12:07:51
OE2XPR 1 2017-07-12 13:41:32 2017-07-12 13:41:32 JN67PU > JN67MW 15.7 miles 296° 2017-07-12 13:41:32
HG5CJW 4 2017-07-12 05:09:04 2017-07-17 17:12:55 JN97KL > JN97KJ 3.9 miles 199° 2017-07-12 06:35:44
HG8PKA-2 18 2017-07-12 03:57:52 2017-07-17 17:34:47 JN97QO > JN96LM 76.3 miles 193° 2017-07-12 03:57:52
HG5CJW-12 21 2017-07-12 04:01:17 2017-07-17 17:44:45 JN97PO > JN97ML 13.3 miles 239° 2017-07-17 17:44:45
OE1XAW 16 2017-07-12 10:05:40 2017-07-17 13:25:50 JN88GD > JN88EE 6.6 miles 296° 2017-07-17 13:25:50
OE3XLR 38 2017-07-12 11:46:57 2017-07-17 13:05:18 JN78EF > JN77TX 61.0 miles 107° 2017-07-17 11:09:58
OE3MUC-15 1 2017-07-17 11:19:17 2017-07-17 11:19:17 JN78GD > JN78SK 49.5 miles 67° 2017-07-17 11:19:17
HG5CJX-2 1 2017-07-17 17:29:39 2017-07-17 17:29:39 JN97MM > JN97MM 458.1 yards 221° 2017-07-17 17:29:39
DL6FCD 2 2017-07-12 17:08:02 2017-07-12 17:09:57 JN58KB > JN58LI 22.8 miles 18° 2017-07-12 17:09:57
OE5XHR-10 2 2017-07-12 13:12:18 2017-07-12 13:16:20 JN68XA > JN68XR 50.4 miles 0° 2017-07-12 13:16:20
DB0WV-10 8 2017-07-12 18:05:33 2017-07-17 05:49:31 JN47VQ > JN47QT 18.8 miles 298° 2017-07-12 18:05:33
UR5DGN-13 1 2017-07-17 20:19:50 2017-07-17 20:19:50 KN18GD > KN18MD 21.8 miles 91° 2017-07-17 20:19:50
DO1FE-10 6 2017-07-12 18:10:20 2017-07-12 18:25:05 JN47UR > JN47TW 13.6 miles 344° 2017-07-12 18:10:20
OE5XSO-10 3 2017-07-12 13:24:21 2017-07-12 13:29:08 JN67UW > JN68SB 10.8 miles 325° 2017-07-12 13:24:21
DK0EW-10 3 2017-07-12 14:37:38 2017-07-12 15:15:03 JN67DT > JN67GV 13.3 miles 62° 2017-07-12 15:15:03
DL2MEL-10 1 2017-07-12 16:14:50 2017-07-12 16:14:50 JN58QC > JN58QE 6.5 miles 13° 2017-07-12 16:14:50
DO9JM-13 6 2017-07-12 18:33:32 2017-07-17 05:51:23 JN47RP > JN47TO 7.2 miles 132° 2017-07-17 05:18:58
OE3CJB-11 2 2017-07-12 12:02:19 2017-07-12 12:06:38 JN78TE > JN78TF 3.3 miles 3° 2017-07-12 12:06:38
HG9PKK-2 30 2017-07-12 02:42:02 2017-07-17 19:34:18 KN07VV > KN08FB 62.8 miles 281° 2017-07-17 19:34:18
HB9KNY-10 12 2017-07-12 18:19:07 2017-07-17 05:44:14 JN47TR > JN47QK 22.6 miles 210° 2017-07-12 18:19:07
UR7DWW-1 3 2017-07-17 20:03:56 2017-07-17 20:13:17 KN18ED > KN18EO 33.6 miles 360° 2017-07-17 20:03:56
UR0DVB-1 17 2017-07-17 19:42:32 2017-07-17 20:50:54 KN17AW > KN18OF 58.2 miles 69° 2017-07-17 19:42:32
DB0LC-1 5 2017-07-12 17:47:47 2017-07-17 05:47:31 JN57AU > JN47WN 22.5 miles 203° 2017-07-12 17:47:47
OE5XLM-10 6 2017-07-12 12:38:29 2017-07-17 11:16:30 JN78JD > JN78CH 29.3 miles 294° 2017-07-12 12:38:29
HG6PGA-10 35 2017-07-12 02:40:28 2017-07-17 18:51:56 KN07QV > JN97XV 69.2 miles 273° 2017-07-12 02:40:28
OE3XMC-10 1 2017-07-17 13:23:12 2017-07-17 13:23:12 JN88FD > JN88FD 1.6 miles 183° 2017-07-17 13:23:12
DC1MBB-10 4 2017-07-12 15:52:19 2017-07-12 16:05:41 JN58TA > JN58TE 11.1 miles 2° 2017-07-12 15:52:19
DB0EEE 1 2017-07-12 17:31:30 2017-07-12 17:31:30 JN58DA > JN58DA 0.9 miles 26° 2017-07-12 17:31:30
OE3ZK-13 1 2017-07-17 13:31:04 2017-07-17 13:31:04 JN88HC > JN88DH 20.2 miles 312° 2017-07-17 13:31:04
OE5XTM-10 3 2017-07-12 18:33:02 2017-07-13 05:33:42 JN47SQ > JN47SQ 2.2 miles 252° 2017-07-12 18:33:02

Only position packets which were originated by the station are shown here. The range statistics show some extra long hops, because some digipeaters do not correctly add themselves to the digipeater path. Please check the raw packets.
About this site
This page shows real-time information collected from the Automatic Position Reporting System Internet network (APRS-IS). APRS is used by amateur (ham) radio operators to transmit real-time position information, weather data, telemetry and messages over the radio. A vehicle equipped with a GPS receiver, a VHF transmitter or HF transceiver and a small computer device called a tracker transmits it's location, speed and course in a small data packet, which is then received by a nearby iGate receiving site which forwards the packet on the Internet. Systems connected to the Internet can send information on the APRS-IS without a radio transmitter, or collect and display information transmitted anywhere in the world.
FAQ · Blog · Discussion group · Linking to aprs.fi · AIS sites · Service status · Database statistics · Advertising on aprs.fi · Technical details · API · Change log · Planned changes · Credits and thanks · Terms Of Service · iPhone/iPad APRS